Strona główna
METAR-TAF:

METAR-TAF

Lotnisko :

Port lotniczy Leeuwarden

Leeuwarden, Holandia

Szerokość geograficzna: 53-13N, Długość geograficzna: 005-46E, wysokość: 1 m

Aktualna obserwacja pogody

Raport powstał 29 minut temu, godzina 09:55 UTC
Wiatr 7 kt od wschód, zmienny między północno-północny wschód i południowo-południowy wschód
Temperatura 10°C
Wilgotność 62%
Ciśnienie 1029 hPa
Widzialność 10 km lub więcej
Brak chmur poniżej 1500 m i brak chmur cumulonimbus

METAR: EHLW 100955Z AUTO 09006KT 030V160 9999 OVC240 10/03 Q1029 BLU 09007KT CAVOK

czas: 12:24 (10:24 UTC)

Prognoza

Raport powstał 1 godzina i 42 minut temu, godzina 08:42 UTC
Prognoza ważna od 10 godzina 09 UTC do 10 godzina 21 UTC
Wiatr 8 kt od wschodnio-północny wschód
Widzialność 10 km lub więcej
Brak chmur poniżej 1500 m i brak chmur cumulonimbus

TAF: EHLW 100842Z 1009/1021 07008KT CAVOK

Obserwacja i prognoza pogody dla ponad 4000 lotnisk (raport METAR i TAF).

Dostępne stacje oznaczono żółtymi i czerwonymi punktami na mapie.

Najedź kursorem aby zobaczyć nazwę stacji.

Kliknij aby zobaczyć obserwacje i prognozy pogody.

Aby zmienić mapę: kliknij na zielony przycisk z czarnym krzyżykiem, aby powiększyć; na zielony przycisk z myślnikiem, aby pomniejszyć; na zielone strzałki, aby przejść do map sąsiednich.


METAR-TAF: